sensor_id;sensor_type;location;lat;lon;timestamp;pressure;altitude;pressure_sealevel;temperature;humidity
8941;BME280;4505;43.406;23.226;2023-06-22T00:01:58;100051.25;;;20.55;100.00
8941;BME280;4505;43.406;23.226;2023-06-22T00:04:26;100055.97;;;20.45;100.00
8941;BME280;4505;43.406;23.226;2023-06-22T00:06:53;100064.06;;;20.45;100.00
8941;BME280;4505;43.406;23.226;2023-06-22T00:09:19;100043.63;;;20.39;100.00
8941;BME280;4505;43.406;23.226;2023-06-22T00:11:46;100041.16;;;20.42;100.00
8941;BME280;4505;43.406;23.226;2023-06-22T00:14:13;100050.56;;;20.45;100.00
8941;BME280;4505;43.406;23.226;2023-06-22T00:16:39;100059.19;;;20.47;100.00
8941;BME280;4505;43.406;23.226;2023-06-22T00:19:08;100059.34;;;20.55;100.00
8941;BME280;4505;43.406;23.226;2023-06-22T00:21:38;100062.03;;;20.55;100.00
8941;BME280;4505;43.406;23.226;2023-06-22T00:24:04;100066.84;;;20.58;100.00
8941;BME280;4505;43.406;23.226;2023-06-22T00:26:31;100068.97;;;20.61;100.00
8941;BME280;4505;43.406;23.226;2023-06-22T00:28:58;100070.84;;;20.61;100.00
8941;BME280;4505;43.406;23.226;2023-06-22T00:31:24;100068.09;;;20.66;100.00
8941;BME280;4505;43.406;23.226;2023-06-22T00:33:51;100069.69;;;20.67;100.00
8941;BME280;4505;43.406;23.226;2023-06-22T00:36:17;100076.94;;;20.71;100.00
8941;BME280;4505;43.406;23.226;2023-06-22T00:38:45;100064.28;;;20.67;100.00
8941;BME280;4505;43.406;23.226;2023-06-22T00:41:12;100074.25;;;20.71;100.00
8941;BME280;4505;43.406;23.226;2023-06-22T00:43:38;100056.88;;;20.77;100.00
8941;BME280;4505;43.406;23.226;2023-06-22T00:46:07;100058.19;;;20.80;100.00
8941;BME280;4505;43.406;23.226;2023-06-22T00:48:33;100052.84;;;20.75;100.00
8941;BME280;4505;43.406;23.226;2023-06-22T00:51:01;100056.00;;;20.82;100.00
8941;BME280;4505;43.406;23.226;2023-06-22T00:53:28;100052.25;;;20.78;100.00
8941;BME280;4505;43.406;23.226;2023-06-22T00:55:56;100047.31;;;20.66;100.00
8941;BME280;4505;43.406;23.226;2023-06-22T00:58:25;100052.78;;;20.61;100.00
8941;BME280;4505;43.406;23.226;2023-06-22T01:00:51;100047.75;;;20.55;100.00
8941;BME280;4505;43.406;23.226;2023-06-22T01:03:18;100046.50;;;20.47;100.00
8941;BME280;4505;43.406;23.226;2023-06-22T01:05:45;100060.63;;;20.39;100.00
8941;BME280;4505;43.406;23.226;2023-06-22T01:08:16;100062.00;;;20.37;100.00
8941;BME280;4505;43.406;23.226;2023-06-22T01:10:44;100066.66;;;20.31;100.00
8941;BME280;4505;43.406;23.226;2023-06-22T01:13:18;100068.06;;;20.24;100.00
8941;BME280;4505;43.406;23.226;2023-06-22T01:15:49;100082.47;;;20.14;100.00
8941;BME280;4505;43.406;23.226;2023-06-22T01:18:17;100078.00;;;20.28;100.00
8941;BME280;4505;43.406;23.226;2023-06-22T01:20:45;100091.81;;;20.22;100.00
8941;BME280;4505;43.406;23.226;2023-06-22T01:23:17;100103.50;;;20.12;100.00
8941;BME280;4505;43.406;23.226;2023-06-22T01:25:47;100097.59;;;20.15;100.00
8941;BME280;4505;43.406;23.226;2023-06-22T01:30:52;100102.47;;;20.08;100.00
8941;BME280;4505;43.406;23.226;2023-06-22T01:33:28;100094.34;;;20.13;100.00
8941;BME280;4505;43.406;23.226;2023-06-22T01:35:55;100103.84;;;20.06;100.00
8941;BME280;4505;43.406;23.226;2023-06-22T01:38:22;100101.50;;;19.99;100.00
8941;BME280;4505;43.406;23.226;2023-06-22T01:40:48;100109.91;;;19.92;100.00
8941;BME280;4505;43.406;23.226;2023-06-22T01:43:16;100108.19;;;20.02;100.00
8941;BME280;4505;43.406;23.226;2023-06-22T01:45:42;100095.97;;;20.09;100.00
8941;BME280;4505;43.406;23.226;2023-06-22T01:48:10;100097.91;;;20.09;100.00
8941;BME280;4505;43.406;23.226;2023-06-22T01:50:37;100089.22;;;20.12;100.00
8941;BME280;4505;43.406;23.226;2023-06-22T01:53:04;100084.91;;;20.11;100.00
8941;BME280;4505;43.406;23.226;2023-06-22T01:55:32;100087.59;;;20.16;100.00
8941;BME280;4505;43.406;23.226;2023-06-22T01:57:58;100072.50;;;20.15;100.00
8941;BME280;4505;43.406;23.226;2023-06-22T02:00:25;100070.03;;;20.18;100.00
8941;BME280;4505;43.406;23.226;2023-06-22T02:02:54;100070.53;;;20.20;100.00
8941;BME280;4505;43.406;23.226;2023-06-22T02:05:25;100079.34;;;20.31;100.00
8941;BME280;4505;43.406;23.226;2023-06-22T02:07:56;100071.47;;;20.34;100.00
8941;BME280;4505;43.406;23.226;2023-06-22T02:10:26;100086.56;;;20.35;100.00
8941;BME280;4505;43.406;23.226;2023-06-22T02:12:53;100083.84;;;20.35;100.00
8941;BME280;4505;43.406;23.226;2023-06-22T02:15:20;100085.91;;;20.43;100.00
8941;BME280;4505;43.406;23.226;2023-06-22T02:17:47;100085.63;;;20.45;100.00
8941;BME280;4505;43.406;23.226;2023-06-22T02:20:14;100083.34;;;20.33;100.00
8941;BME280;4505;43.406;23.226;2023-06-22T02:22:42;100086.25;;;20.37;100.00
8941;BME280;4505;43.406;23.226;2023-06-22T02:25:09;100093.97;;;20.25;100.00
8941;BME280;4505;43.406;23.226;2023-06-22T02:27:35;100093.41;;;20.28;100.00
8941;BME280;4505;43.406;23.226;2023-06-22T02:30:06;100095.03;;;20.24;100.00
8941;BME280;4505;43.406;23.226;2023-06-22T02:32:32;100100.16;;;20.25;100.00
8941;BME280;4505;43.406;23.226;2023-06-22T02:34:59;100108.75;;;20.27;100.00
8941;BME280;4505;43.406;23.226;2023-06-22T02:37:29;100100.59;;;20.09;100.00
8941;BME280;4505;43.406;23.226;2023-06-22T02:39:57;100113.84;;;20.05;100.00
8941;BME280;4505;43.406;23.226;2023-06-22T02:42:23;100123.81;;;20.05;100.00
8941;BME280;4505;43.406;23.226;2023-06-22T02:44:50;100122.16;;;20.09;100.00
8941;BME280;4505;43.406;23.226;2023-06-22T02:47:16;100126.44;;;20.10;100.00
8941;BME280;4505;43.406;23.226;2023-06-22T02:49:43;100128.38;;;20.04;100.00
8941;BME280;4505;43.406;23.226;2023-06-22T02:52:10;100132.19;;;20.03;100.00
8941;BME280;4505;43.406;23.226;2023-06-22T02:54:37;100139.41;;;20.08;100.00
8941;BME280;4505;43.406;23.226;2023-06-22T02:57:05;100134.25;;;20.11;100.00
8941;BME280;4505;43.406;23.226;2023-06-22T02:59:32;100135.06;;;20.17;100.00
8941;BME280;4505;43.406;23.226;2023-06-22T03:01:58;100135.25;;;20.20;100.00
8941;BME280;4505;43.406;23.226;2023-06-22T03:04:25;100130.16;;;20.14;100.00
8941;BME280;4505;43.406;23.226;2023-06-22T03:06:52;100130.38;;;20.22;100.00
8941;BME280;4505;43.406;23.226;2023-06-22T03:09:19;100126.25;;;20.30;100.00
8941;BME280;4505;43.406;23.226;2023-06-22T03:11:46;100132.47;;;20.30;100.00
8941;BME280;4505;43.406;23.226;2023-06-22T03:14:14;100129.13;;;20.38;100.00
8941;BME280;4505;43.406;23.226;2023-06-22T03:16:40;100135.56;;;20.42;100.00
8941;BME280;4505;43.406;23.226;2023-06-22T03:19:07;100135.97;;;20.31;100.00
8941;BME280;4505;43.406;23.226;2023-06-22T03:21:33;100146.22;;;20.29;100.00
8941;BME280;4505;43.406;23.226;2023-06-22T03:24:00;100152.34;;;20.39;100.00
8941;BME280;4505;43.406;23.226;2023-06-22T03:26:26;100146.94;;;20.39;100.00
8941;BME280;4505;43.406;23.226;2023-06-22T03:28:53;100146.19;;;20.34;100.00
8941;BME280;4505;43.406;23.226;2023-06-22T03:31:21;100149.56;;;20.21;100.00
8941;BME280;4505;43.406;23.226;2023-06-22T03:33:48;100147.63;;;20.26;100.00
8941;BME280;4505;43.406;23.226;2023-06-22T03:36:14;100139.63;;;20.40;100.00
8941;BME280;4505;43.406;23.226;2023-06-22T03:38:44;100137.69;;;20.45;100.00
8941;BME280;4505;43.406;23.226;2023-06-22T03:41:10;100133.22;;;20.59;100.00
8941;BME280;4505;43.406;23.226;2023-06-22T03:43:37;100117.97;;;20.68;100.00
8941;BME280;4505;43.406;23.226;2023-06-22T03:46:03;100119.91;;;20.86;100.00
8941;BME280;4505;43.406;23.226;2023-06-22T03:48:31;100126.34;;;20.90;100.00
8941;BME280;4505;43.406;23.226;2023-06-22T03:50:58;100116.13;;;20.87;100.00
8941;BME280;4505;43.406;23.226;2023-06-22T03:53:25;100115.41;;;21.00;100.00
8941;BME280;4505;43.406;23.226;2023-06-22T03:55:51;100113.38;;;21.11;100.00
8941;BME280;4505;43.406;23.226;2023-06-22T03:58:19;100113.97;;;20.84;100.00
8941;BME280;4505;43.406;23.226;2023-06-22T04:00:46;100110.66;;;20.50;100.00
8941;BME280;4505;43.406;23.226;2023-06-22T04:03:12;100116.63;;;20.89;100.00
8941;BME280;4505;43.406;23.226;2023-06-22T04:05:40;100130.66;;;21.10;100.00
8941;BME280;4505;43.406;23.226;2023-06-22T04:08:07;100122.50;;;21.15;100.00
8941;BME280;4505;43.406;23.226;2023-06-22T04:10:34;100122.16;;;21.03;100.00
8941;BME280;4505;43.406;23.226;2023-06-22T04:13:01;100129.94;;;21.23;100.00
8941;BME280;4505;43.406;23.226;2023-06-22T04:15:27;100123.59;;;21.33;100.00
8941;BME280;4505;43.406;23.226;2023-06-22T04:17:54;100123.13;;;21.44;100.00
8941;BME280;4505;43.406;23.226;2023-06-22T04:20:20;100130.47;;;21.44;100.00
8941;BME280;4505;43.406;23.226;2023-06-22T04:22:48;100131.09;;;21.54;100.00
8941;BME280;4505;43.406;23.226;2023-06-22T04:25:15;100130.25;;;21.21;100.00
8941;BME280;4505;43.406;23.226;2023-06-22T04:27:41;100133.16;;;21.25;100.00
8941;BME280;4505;43.406;23.226;2023-06-22T04:30:08;100133.81;;;21.36;100.00
8941;BME280;4505;43.406;23.226;2023-06-22T04:32:36;100137.41;;;21.63;100.00
8941;BME280;4505;43.406;23.226;2023-06-22T04:35:02;100149.78;;;21.69;100.00
8941;BME280;4505;43.406;23.226;2023-06-22T04:37:29;100159.28;;;21.85;100.00
8941;BME280;4505;43.406;23.226;2023-06-22T04:39:57;100155.78;;;21.98;100.00
8941;BME280;4505;43.406;23.226;2023-06-22T04:42:25;100150.91;;;22.14;100.00
8941;BME280;4505;43.406;23.226;2023-06-22T04:44:52;100148.63;;;22.34;100.00
8941;BME280;4505;43.406;23.226;2023-06-22T04:47:18;100149.19;;;22.63;100.00
8941;BME280;4505;43.406;23.226;2023-06-22T04:49:45;100152.97;;;22.90;100.00
8941;BME280;4505;43.406;23.226;2023-06-22T04:52:12;100153.69;;;23.17;100.00
8941;BME280;4505;43.406;23.226;2023-06-22T04:54:39;100154.09;;;23.38;100.00
8941;BME280;4505;43.406;23.226;2023-06-22T04:57:14;100156.81;;;23.60;100.00
8941;BME280;4505;43.406;23.226;2023-06-22T04:59:41;100152.38;;;23.86;100.00
8941;BME280;4505;43.406;23.226;2023-06-22T05:02:08;100161.44;;;24.04;100.00
8941;BME280;4505;43.406;23.226;2023-06-22T05:04:34;100166.84;;;24.26;100.00
8941;BME280;4505;43.406;23.226;2023-06-22T05:07:03;100164.41;;;24.55;100.00
8941;BME280;4505;43.406;23.226;2023-06-22T05:09:30;100175.38;;;24.80;100.00
8941;BME280;4505;43.406;23.226;2023-06-22T05:11:58;100166.47;;;24.88;100.00
8941;BME280;4505;43.406;23.226;2023-06-22T05:14:28;100173.63;;;24.84;100.00
8941;BME280;4505;43.406;23.226;2023-06-22T05:16:55;100168.28;;;25.27;100.00
8941;BME280;4505;43.406;23.226;2023-06-22T05:19:23;100166.19;;;25.15;100.00
8941;BME280;4505;43.406;23.226;2023-06-22T05:21:50;100167.03;;;25.67;100.00
8941;BME280;4505;43.406;23.226;2023-06-22T05:24:17;100173.41;;;25.88;100.00
8941;BME280;4505;43.406;23.226;2023-06-22T05:26:43;100175.88;;;26.27;100.00
8941;BME280;4505;43.406;23.226;2023-06-22T05:29:10;100172.16;;;26.40;100.00
8941;BME280;4505;43.406;23.226;2023-06-22T05:31:38;100170.50;;;26.10;100.00
8941;BME280;4505;43.406;23.226;2023-06-22T05:34:05;100168.75;;;26.52;100.00
8941;BME280;4505;43.406;23.226;2023-06-22T05:36:32;100183.97;;;26.91;100.00
8941;BME280;4505;43.406;23.226;2023-06-22T05:38:59;100180.47;;;27.11;100.00
8941;BME280;4505;43.406;23.226;2023-06-22T05:41:25;100183.72;;;27.54;100.00
8941;BME280;4505;43.406;23.226;2023-06-22T05:43:52;100185.81;;;26.78;100.00
8941;BME280;4505;43.406;23.226;2023-06-22T05:46:18;100179.81;;;26.47;100.00
8941;BME280;4505;43.406;23.226;2023-06-22T05:48:47;100191.88;;;26.37;100.00
8941;BME280;4505;43.406;23.226;2023-06-22T05:51:13;100188.69;;;26.82;100.00
8941;BME280;4505;43.406;23.226;2023-06-22T05:53:40;100182.44;;;26.81;100.00
8941;BME280;4505;43.406;23.226;2023-06-22T05:56:06;100187.91;;;27.02;100.00
8941;BME280;4505;43.406;23.226;2023-06-22T05:58:33;100183.50;;;26.89;100.00
8941;BME280;4505;43.406;23.226;2023-06-22T06:00:59;100184.44;;;26.93;100.00
8941;BME280;4505;43.406;23.226;2023-06-22T06:03:27;100193.69;;;27.00;100.00
8941;BME280;4505;43.406;23.226;2023-06-22T06:05:55;100201.25;;;26.95;100.00
8941;BME280;4505;43.406;23.226;2023-06-22T06:08:22;100196.25;;;27.34;100.00
8941;BME280;4505;43.406;23.226;2023-06-22T06:10:49;100197.41;;;27.66;100.00
8941;BME280;4505;43.406;23.226;2023-06-22T06:13:18;100202.25;;;26.90;100.00
8941;BME280;4505;43.406;23.226;2023-06-22T06:15:44;100204.31;;;26.93;100.00
8941;BME280;4505;43.406;23.226;2023-06-22T06:18:11;100189.50;;;27.73;100.00
8941;BME280;4505;43.406;23.226;2023-06-22T06:20:38;100188.25;;;28.03;100.00
8941;BME280;4505;43.406;23.226;2023-06-22T06:23:06;100193.66;;;27.38;100.00
8941;BME280;4505;43.406;23.226;2023-06-22T06:25:32;100184.50;;;27.34;100.00
8941;BME280;4505;43.406;23.226;2023-06-22T06:27:59;100181.28;;;27.11;100.00
8941;BME280;4505;43.406;23.226;2023-06-22T06:30:26;100178.38;;;26.87;100.00
8941;BME280;4505;43.406;23.226;2023-06-22T06:32:52;100192.84;;;27.37;100.00
8941;BME280;4505;43.406;23.226;2023-06-22T06:35:19;100182.47;;;26.73;100.00
8941;BME280;4505;43.406;23.226;2023-06-22T06:37:47;100181.28;;;26.82;100.00
8941;BME280;4505;43.406;23.226;2023-06-22T06:40:16;100190.25;;;26.45;100.00
8941;BME280;4505;43.406;23.226;2023-06-22T06:42:43;100195.00;;;25.93;100.00
8941;BME280;4505;43.406;23.226;2023-06-22T06:45:10;100191.22;;;26.40;100.00
8941;BME280;4505;43.406;23.226;2023-06-22T06:47:38;100191.13;;;26.28;100.00
8941;BME280;4505;43.406;23.226;2023-06-22T06:50:06;100191.16;;;26.11;100.00
8941;BME280;4505;43.406;23.226;2023-06-22T06:52:32;100192.47;;;25.46;100.00
8941;BME280;4505;43.406;23.226;2023-06-22T06:54:59;100184.91;;;26.65;100.00
8941;BME280;4505;43.406;23.226;2023-06-22T06:57:27;100184.72;;;26.70;100.00
8941;BME280;4505;43.406;23.226;2023-06-22T06:59:54;100186.44;;;26.29;100.00
8941;BME280;4505;43.406;23.226;2023-06-22T07:02:21;100171.41;;;26.23;100.00
8941;BME280;4505;43.406;23.226;2023-06-22T07:04:47;100170.97;;;26.67;100.00
8941;BME280;4505;43.406;23.226;2023-06-22T07:07:14;100174.34;;;26.55;100.00
8941;BME280;4505;43.406;23.226;2023-06-22T07:09:40;100179.19;;;26.88;100.00
8941;BME280;4505;43.406;23.226;2023-06-22T07:12:07;100188.78;;;26.01;100.00
8941;BME280;4505;43.406;23.226;2023-06-22T07:14:35;100192.63;;;25.66;100.00
8941;BME280;4505;43.406;23.226;2023-06-22T07:17:02;100191.78;;;26.00;100.00
8941;BME280;4505;43.406;23.226;2023-06-22T07:19:29;100187.59;;;26.28;100.00
8941;BME280;4505;43.406;23.226;2023-06-22T07:21:56;100186.91;;;26.77;100.00
8941;BME280;4505;43.406;23.226;2023-06-22T07:24:23;100181.72;;;27.42;100.00
8941;BME280;4505;43.406;23.226;2023-06-22T07:26:50;100193.47;;;26.85;100.00
8941;BME280;4505;43.406;23.226;2023-06-22T07:29:17;100191.72;;;26.80;100.00
8941;BME280;4505;43.406;23.226;2023-06-22T07:31:46;100179.63;;;26.60;100.00
8941;BME280;4505;43.406;23.226;2023-06-22T07:34:14;100182.31;;;26.69;100.00
8941;BME280;4505;43.406;23.226;2023-06-22T07:36:42;100188.06;;;26.76;100.00
8941;BME280;4505;43.406;23.226;2023-06-22T07:39:09;100180.28;;;27.16;100.00
8941;BME280;4505;43.406;23.226;2023-06-22T07:41:37;100179.78;;;27.63;100.00
8941;BME280;4505;43.406;23.226;2023-06-22T07:44:03;100178.44;;;27.69;100.00
8941;BME280;4505;43.406;23.226;2023-06-22T07:46:31;100169.09;;;28.24;100.00
8941;BME280;4505;43.406;23.226;2023-06-22T07:48:59;100176.41;;;27.99;100.00
8941;BME280;4505;43.406;23.226;2023-06-22T07:51:26;100161.09;;;28.07;100.00
8941;BME280;4505;43.406;23.226;2023-06-22T07:53:53;100158.75;;;28.41;100.00
8941;BME280;4505;43.406;23.226;2023-06-22T07:56:20;100172.47;;;27.55;100.00
8941;BME280;4505;43.406;23.226;2023-06-22T07:58:46;100165.06;;;28.09;100.00
8941;BME280;4505;43.406;23.226;2023-06-22T08:01:13;100161.81;;;28.28;100.00
8941;BME280;4505;43.406;23.226;2023-06-22T08:03:40;100163.53;;;28.32;100.00
8941;BME280;4505;43.406;23.226;2023-06-22T08:06:08;100168.13;;;28.08;100.00
8941;BME280;4505;43.406;23.226;2023-06-22T08:08:35;100172.69;;;28.48;100.00
8941;BME280;4505;43.406;23.226;2023-06-22T08:11:03;100177.78;;;28.98;100.00
8941;BME280;4505;43.406;23.226;2023-06-22T08:13:30;100169.94;;;28.48;100.00
8941;BME280;4505;43.406;23.226;2023-06-22T08:15:56;100169.22;;;27.94;100.00
8941;BME280;4505;43.406;23.226;2023-06-22T08:18:25;100168.31;;;27.90;100.00
8941;BME280;4505;43.406;23.226;2023-06-22T08:20:52;100177.44;;;27.74;100.00
8941;BME280;4505;43.406;23.226;2023-06-22T08:23:20;100173.31;;;28.21;100.00
8941;BME280;4505;43.406;23.226;2023-06-22T08:25:46;100174.28;;;29.09;100.00
8941;BME280;4505;43.406;23.226;2023-06-22T08:28:15;100165.84;;;28.78;100.00
8941;BME280;4505;43.406;23.226;2023-06-22T08:30:42;100161.44;;;29.37;100.00
8941;BME280;4505;43.406;23.226;2023-06-22T08:33:08;100163.91;;;28.67;100.00
8941;BME280;4505;43.406;23.226;2023-06-22T08:35:35;100155.00;;;28.94;100.00
8941;BME280;4505;43.406;23.226;2023-06-22T08:38:01;100146.94;;;28.73;100.00
8941;BME280;4505;43.406;23.226;2023-06-22T08:40:29;100146.63;;;28.63;100.00
8941;BME280;4505;43.406;23.226;2023-06-22T08:42:56;100149.22;;;28.71;100.00
8941;BME280;4505;43.406;23.226;2023-06-22T08:45:23;100149.66;;;28.97;100.00
8941;BME280;4505;43.406;23.226;2023-06-22T08:47:49;100141.91;;;28.99;100.00
8941;BME280;4505;43.406;23.226;2023-06-22T08:50:16;100148.25;;;29.03;100.00
8941;BME280;4505;43.406;23.226;2023-06-22T08:52:43;100149.59;;;29.33;100.00
8941;BME280;4505;43.406;23.226;2023-06-22T08:55:10;100155.78;;;29.30;100.00
8941;BME280;4505;43.406;23.226;2023-06-22T08:57:39;100145.03;;;29.37;100.00
8941;BME280;4505;43.406;23.226;2023-06-22T09:00:06;100152.00;;;29.90;94.15
8941;BME280;4505;43.406;23.226;2023-06-22T09:02:41;100143.31;;;30.47;87.11
8941;BME280;4505;43.406;23.226;2023-06-22T09:05:07;100136.25;;;30.77;95.61
8941;BME280;4505;43.406;23.226;2023-06-22T09:07:34;100140.56;;;31.13;93.82
8941;BME280;4505;43.406;23.226;2023-06-22T09:10:01;100140.50;;;30.43;99.21
8941;BME280;4505;43.406;23.226;2023-06-22T09:12:30;100130.56;;;30.70;100.00
8941;BME280;4505;43.406;23.226;2023-06-22T09:14:59;100127.00;;;29.92;100.00
8941;BME280;4505;43.406;23.226;2023-06-22T09:17:26;100126.88;;;30.78;100.00
8941;BME280;4505;43.406;23.226;2023-06-22T09:19:54;100122.34;;;30.08;100.00
8941;BME280;4505;43.406;23.226;2023-06-22T09:22:20;100126.44;;;30.29;100.00
8941;BME280;4505;43.406;23.226;2023-06-22T09:24:47;100122.53;;;30.15;100.00
8941;BME280;4505;43.406;23.226;2023-06-22T09:27:14;100125.72;;;30.63;100.00
8941;BME280;4505;43.406;23.226;2023-06-22T09:29:40;100128.53;;;30.83;99.39
8941;BME280;4505;43.406;23.226;2023-06-22T09:32:08;100125.22;;;31.27;92.11
8941;BME280;4505;43.406;23.226;2023-06-22T09:34:35;100131.53;;;31.12;94.27
8941;BME280;4505;43.406;23.226;2023-06-22T09:37:01;100137.41;;;31.30;88.77
8941;BME280;4505;43.406;23.226;2023-06-22T09:39:28;100133.97;;;31.52;90.06
8941;BME280;4505;43.406;23.226;2023-06-22T09:41:54;100142.94;;;30.95;94.41
8941;BME280;4505;43.406;23.226;2023-06-22T09:44:24;100137.50;;;31.33;93.72
8941;BME280;4505;43.406;23.226;2023-06-22T09:46:50;100141.81;;;31.15;91.79
8941;BME280;4505;43.406;23.226;2023-06-22T09:49:18;100134.44;;;32.18;81.49
8941;BME280;4505;43.406;23.226;2023-06-22T09:51:45;100126.53;;;33.40;79.53
8941;BME280;4505;43.406;23.226;2023-06-22T09:54:11;100129.44;;;33.54;78.99
8941;BME280;4505;43.406;23.226;2023-06-22T09:56:38;100128.03;;;33.67;76.50
8941;BME280;4505;43.406;23.226;2023-06-22T09:59:05;100131.63;;;34.11;73.81
8941;BME280;4505;43.406;23.226;2023-06-22T10:01:31;100142.97;;;30.33;100.00
8941;BME280;4505;43.406;23.226;2023-06-22T10:03:58;100137.56;;;31.75;100.00
8941;BME280;4505;43.406;23.226;2023-06-22T10:06:26;100142.50;;;31.85;96.58
8941;BME280;4505;43.406;23.226;2023-06-22T10:08:53;100146.63;;;31.37;100.00
8941;BME280;4505;43.406;23.226;2023-06-22T10:11:20;100140.94;;;32.07;96.60
8941;BME280;4505;43.406;23.226;2023-06-22T10:13:52;100139.22;;;31.79;99.25
8941;BME280;4505;43.406;23.226;2023-06-22T10:16:18;100152.94;;;31.22;100.00
8941;BME280;4505;43.406;23.226;2023-06-22T10:18:45;100143.41;;;30.50;100.00
8941;BME280;4505;43.406;23.226;2023-06-22T10:21:12;100138.44;;;31.79;100.00
8941;BME280;4505;43.406;23.226;2023-06-22T10:23:40;100129.84;;;31.61;100.00
8941;BME280;4505;43.406;23.226;2023-06-22T10:26:07;100132.03;;;32.13;100.00
8941;BME280;4505;43.406;23.226;2023-06-22T10:28:33;100140.75;;;31.58;100.00
8941;BME280;4505;43.406;23.226;2023-06-22T10:31:00;100132.25;;;32.27;100.00
8941;BME280;4505;43.406;23.226;2023-06-22T10:33:27;100135.63;;;31.03;100.00
8941;BME280;4505;43.406;23.226;2023-06-22T10:35:54;100139.34;;;32.05;100.00
8941;BME280;4505;43.406;23.226;2023-06-22T10:38:20;100147.03;;;31.77;100.00
8941;BME280;4505;43.406;23.226;2023-06-22T10:40:49;100135.63;;;31.56;100.00
8941;BME280;4505;43.406;23.226;2023-06-22T10:43:15;100142.13;;;31.48;100.00
8941;BME280;4505;43.406;23.226;2023-06-22T10:45:42;100147.13;;;31.08;100.00
8941;BME280;4505;43.406;23.226;2023-06-22T10:48:09;100150.50;;;30.36;100.00
8941;BME280;4505;43.406;23.226;2023-06-22T10:50:35;100145.91;;;29.97;100.00
8941;BME280;4505;43.406;23.226;2023-06-22T10:53:02;100141.66;;;30.42;100.00
8941;BME280;4505;43.406;23.226;2023-06-22T10:55:28;100145.81;;;29.93;100.00
8941;BME280;4505;43.406;23.226;2023-06-22T10:57:56;100142.16;;;30.79;100.00
8941;BME280;4505;43.406;23.226;2023-06-22T11:00:23;100141.50;;;31.55;100.00
8941;BME280;4505;43.406;23.226;2023-06-22T11:02:50;100149.72;;;31.74;100.00
8941;BME280;4505;43.406;23.226;2023-06-22T11:05:16;100149.84;;;32.68;100.00
8941;BME280;4505;43.406;23.226;2023-06-22T11:07:43;100152.16;;;32.21;100.00
8941;BME280;4505;43.406;23.226;2023-06-22T11:10:10;100157.22;;;31.77;100.00
8941;BME280;4505;43.406;23.226;2023-06-22T11:12:36;100147.88;;;32.00;100.00
8941;BME280;4505;43.406;23.226;2023-06-22T11:15:06;100155.06;;;30.63;100.00
8941;BME280;4505;43.406;23.226;2023-06-22T11:17:33;100155.63;;;31.38;100.00
8941;BME280;4505;43.406;23.226;2023-06-22T11:20:00;100150.59;;;31.97;100.00
8941;BME280;4505;43.406;23.226;2023-06-22T11:22:26;100159.53;;;31.37;100.00
8941;BME280;4505;43.406;23.226;2023-06-22T11:24:53;100151.25;;;31.71;100.00
8941;BME280;4505;43.406;23.226;2023-06-22T11:27:20;100145.25;;;31.47;100.00
8941;BME280;4505;43.406;23.226;2023-06-22T11:29:46;100145.09;;;31.40;100.00
8941;BME280;4505;43.406;23.226;2023-06-22T11:32:14;100142.53;;;33.05;100.00
8941;BME280;4505;43.406;23.226;2023-06-22T11:34:41;100135.72;;;33.51;100.00
8941;BME280;4505;43.406;23.226;2023-06-22T11:37:07;100145.91;;;32.43;100.00
8941;BME280;4505;43.406;23.226;2023-06-22T11:39:36;100135.84;;;33.02;100.00
8941;BME280;4505;43.406;23.226;2023-06-22T11:42:02;100141.13;;;33.44;100.00
8941;BME280;4505;43.406;23.226;2023-06-22T11:44:29;100139.47;;;34.06;100.00
8941;BME280;4505;43.406;23.226;2023-06-22T11:46:55;100135.31;;;33.23;99.72
8941;BME280;4505;43.406;23.226;2023-06-22T11:49:23;100134.56;;;33.56;99.50
8941;BME280;4505;43.406;23.226;2023-06-22T11:51:50;100136.75;;;34.53;90.11
8941;BME280;4505;43.406;23.226;2023-06-22T11:54:16;100136.53;;;34.28;89.12
8941;BME280;4505;43.406;23.226;2023-06-22T11:56:43;100138.75;;;34.16;90.31
8941;BME280;4505;43.406;23.226;2023-06-22T11:59:09;100135.63;;;33.44;93.98
8941;BME280;4505;43.406;23.226;2023-06-22T12:01:36;100145.66;;;32.51;100.00
8941;BME280;4505;43.406;23.226;2023-06-22T12:04:03;100146.06;;;32.08;100.00
8941;BME280;4505;43.406;23.226;2023-06-22T12:06:32;100146.22;;;31.77;100.00
8941;BME280;4505;43.406;23.226;2023-06-22T12:09:00;100142.75;;;31.80;100.00
8941;BME280;4505;43.406;23.226;2023-06-22T12:11:29;100128.69;;;31.62;100.00
8941;BME280;4505;43.406;23.226;2023-06-22T12:13:56;100145.63;;;31.11;100.00
8941;BME280;4505;43.406;23.226;2023-06-22T12:16:26;100137.06;;;31.69;100.00
8941;BME280;4505;43.406;23.226;2023-06-22T12:18:53;100143.81;;;30.99;100.00
8941;BME280;4505;43.406;23.226;2023-06-22T12:21:20;100134.31;;;30.31;100.00
8941;BME280;4505;43.406;23.226;2023-06-22T12:23:48;100132.31;;;29.85;100.00
8941;BME280;4505;43.406;23.226;2023-06-22T12:26:14;100130.38;;;30.01;100.00
8941;BME280;4505;43.406;23.226;2023-06-22T12:28:41;100122.38;;;30.39;100.00
8941;BME280;4505;43.406;23.226;2023-06-22T12:31:07;100119.00;;;30.61;100.00
8941;BME280;4505;43.406;23.226;2023-06-22T12:33:34;100119.06;;;30.80;100.00
8941;BME280;4505;43.406;23.226;2023-06-22T12:36:00;100118.47;;;30.55;100.00
8941;BME280;4505;43.406;23.226;2023-06-22T12:38:27;100114.31;;;30.30;100.00
8941;BME280;4505;43.406;23.226;2023-06-22T12:40:55;100110.19;;;30.36;100.00
8941;BME280;4505;43.406;23.226;2023-06-22T12:43:23;100108.50;;;30.32;100.00
8941;BME280;4505;43.406;23.226;2023-06-22T12:45:50;100110.91;;;29.90;100.00
8941;BME280;4505;43.406;23.226;2023-06-22T12:48:16;100108.78;;;30.27;100.00
8941;BME280;4505;43.406;23.226;2023-06-22T12:50:43;100103.59;;;29.79;100.00
8941;BME280;4505;43.406;23.226;2023-06-22T12:53:09;100106.75;;;29.65;100.00